Trident Challenger — V7TY7 — position and weather

sailwx.info

Track history (hours):
 
Tides and Currents Weather Stations Pressure Air Temp Water Temp Dewpoint Dewpoint Depression Visibility Wind Speed Wind Dir Waves Ship Positions

Trident Challenger

Last reported at 2015-Jan-30 16:32 UTC. Time now 2015-Jan-30 17:09 UTC.
Position N 54°05' E 007°46'.

Length 189 m; draft 7 m.

Type: Cargo ship. MMSI: 538003908.

Date/timePositionNaut miles runAvg speedWind from/ knotsBaromVisibWave heightAir tempDewpointWater temp
2015-Jan-30 16:32N 54°05' E 007°46'0 0.0
2015-Jan-30 15:26N 54°05' E 007°46'0 0.0
2015-Jan-30 14:29N 54°05' E 007°46'0 0.0
2015-Jan-30 13:32N 54°05' E 007°46'0 0.1
2015-Jan-30 12:32N 54°05' E 007°46'0 0.0
2015-Jan-30 11:29N 54°05' E 007°46'0 0.0
2015-Jan-30 10:32N 54°05' E 007°46'0 0.1
2015-Jan-30 09:26N 54°05' E 007°46'0 0.0
2015-Jan-30 08:32N 54°05' E 007°46'0 0.0
2015-Jan-30 07:29N 54°05' E 007°46'0 0.0
2015-Jan-30 06:32N 54°05' E 007°46'0 0.0
2015-Jan-30 05:32N 54°05' E 007°46'0 0.0
2015-Jan-30 04:32N 54°05' E 007°46'0 0.0
2015-Jan-30 03:32N 54°05' E 007°46'0 0.0
2015-Jan-30 02:32N 54°05' E 007°46'0 0.0
2015-Jan-30 01:32N 54°05' E 007°46'0 0.1
2015-Jan-30 00:32N 54°05' E 007°46'0 0.1
2015-Jan-29 23:32N 54°05' E 007°46'0 0.0
2015-Jan-29 22:32N 54°05' E 007°46'0 0.1
2015-Jan-29 21:32N 54°05' E 007°46'0 0.0
2015-Jan-29 20:32N 54°05' E 007°46'0 0.0
2015-Jan-29 19:32N 54°05' E 007°46'0 0.0
2015-Jan-29 18:29N 54°05' E 007°46'0 0.0
2015-Jan-29 17:17N 54°05' E 007°46'0 0.0
2015-Jan-29 16:29N 54°05' E 007°46'0 0.0
2015-Jan-29 15:29N 54°05' E 007°46'1 1.5
2015-Jan-29 14:33N 54°05' E 007°48'5 4.7
2015-Jan-29 13:33N 54°06' E 007°56'1 1.3
2015-Jan-29 12:33N 54°07' E 007°58'1 1.1
2015-Jan-29 11:33N 54°08' E 007°60'1 1.0
2015-Jan-29 10:33N 54°08' E 008°01'4 4.2
2015-Jan-29 09:33N 54°07' E 008°08'2 1.9
2015-Jan-29 08:33N 54°06' E 008°05'9 9.4
2015-Jan-29 07:33N 54°06' E 007°49'1010.2
2015-Jan-29 06:33N 54°14' E 007°39'1111.2
2015-Jan-29 05:33N 54°22' E 007°26'1111.1
2015-Jan-29 04:33N 54°29' E 007°11'6 5.9
2015-Jan-29 03:33N 54°34' E 007°18'5 5.3
2015-Jan-29 02:33N 54°38' E 007°23'5 5.0
2015-Jan-29 01:34N 54°43' E 007°26'1212.4
2015-Jan-29 00:33N 54°49' E 007°07'1110.6
2015-Jan-28 23:33N 54°58' E 006°59'1111.1
2015-Jan-28 22:33N 55°09' E 006°52'1110.8
2015-Jan-28 21:33N 55°19' E 006°45'9 8.7
2015-Jan-28 20:33N 55°28' E 006°45'8 8.3
2015-Jan-28 19:33N 55°35' E 006°50'9 9.0
2015-Jan-28 18:33N 55°44' E 006°56'9 8.6
2015-Jan-28 17:33N 55°52' E 007°02'168 8.7
2015-Jan-27 22:13N 57°46' E 010°46'710.1
2015-Jan-27 21:33N 57°41' E 010°38'0 0.2
2015-Jan-27 19:14N 57°41' E 010°38'0 0.0
2015-Jan-27 18:17N 57°41' E 010°38'0 0.0
2015-Jan-27 17:11N 57°41' E 010°38'0 0.0
2015-Jan-27 16:26N 57°41' E 010°38'0 0.0
2015-Jan-27 15:14N 57°41' E 010°38'0 0.0
2015-Jan-27 14:29N 57°41' E 010°38'0 0.0
2015-Jan-27 13:17N 57°41' E 010°38'0 0.1
2015-Jan-27 11:32N 57°41' E 010°38'0 0.1
2015-Jan-27 10:14N 57°41' E 010°38'0 0.0
2015-Jan-27 09:32N 57°41' E 010°38'0 0.0
2015-Jan-27 08:26N 57°41' E 010°38'0 0.0
2015-Jan-27 07:29N 57°41' E 010°38'0 0.0
2015-Jan-27 06:32N 57°41' E 010°38'0 0.0
2015-Jan-27 05:29N 57°41' E 010°38'0 0.0
2015-Jan-27 04:23N 57°41' E 010°38'0 0.0
2015-Jan-27 03:17N 57°41' E 010°38'0 0.0
2015-Jan-27 02:32N 57°41' E 010°38'0 0.0
2015-Jan-27 01:32N 57°41' E 010°38'0 0.0
2015-Jan-27 00:32N 57°41' E 010°38'0 0.0
2015-Jan-26 23:32N 57°41' E 010°38'0 0.0
2015-Jan-26 22:29N 57°41' E 010°38'0 0.0
2015-Jan-26 21:32N 57°41' E 010°38'0 0.0
2015-Jan-26 20:14N 57°41' E 010°38'0 0.0
2015-Jan-26 17:32N 57°41' E 010°38'0 0.1
2015-Jan-26 16:29N 57°41' E 010°38'0 0.0
2015-Jan-26 15:23N 57°41' E 010°38'0 0.0
2015-Jan-26 14:20N 57°41' E 010°38'0 0.0
2015-Jan-26 13:14N 57°41' E 010°38'0 0.0
2015-Jan-26 12:23N 57°41' E 010°38'0 0.0
2015-Jan-26 11:32N 57°41' E 010°38'0 0.0
2015-Jan-26 10:29N 57°41' E 010°38'0 0.0
2015-Jan-26 09:32N 57°41' E 010°38'0 0.0
2015-Jan-26 08:32N 57°41' E 010°38'0 0.0
2015-Jan-26 07:29N 57°41' E 010°38'0 0.0
2015-Jan-26 06:20N 57°41' E 010°38'0 0.0
2015-Jan-26 05:29N 57°41' E 010°38'0 0.0
2015-Jan-26 04:32N 57°41' E 010°38'0 0.0
2015-Jan-26 03:17N 57°41' E 010°38'0 0.0
2015-Jan-26 02:26N 57°41' E 010°38'0 0.0
2015-Jan-25 23:32N 57°41' E 010°38'0 0.0
2015-Jan-25 22:23N 57°41' E 010°38'0 0.0
2015-Jan-25 21:32N 57°41' E 010°38'0 0.0
2015-Jan-25 20:26N 57°41' E 010°38'0 0.0
2015-Jan-25 19:20N 57°41' E 010°38'0 0.0
2015-Jan-25 18:32N 57°41' E 010°38'0 0.0
2015-Jan-25 16:23N 57°41' E 010°38'0 0.0
2015-Jan-25 15:11N 57°41' E 010°38'0 0.0
2015-Jan-25 14:32N 57°41' E 010°38'0 0.0
2015-Jan-25 12:23N 57°41' E 010°38'0 0.0
2015-Jan-25 10:32N 57°41' E 010°38'0 0.1
2015-Jan-25 09:14N 57°41' E 010°38'0 0.0
2015-Jan-25 08:23N 57°41' E 010°38'0 0.0
2015-Jan-25 07:29N 57°41' E 010°38'0 0.0
2015-Jan-25 06:20N 57°41' E 010°38'0 0.0
2015-Jan-25 05:32N 57°41' E 010°38'0 0.0
2015-Jan-25 01:05N 57°41' E 010°38'0 0.0
2015-Jan-25 00:08N 57°41' E 010°38'0 0.1
2015-Jan-24 23:26N 57°41' E 010°38'0 0.0
2015-Jan-24 22:26N 57°41' E 010°38'0 0.0
2015-Jan-24 21:14N 57°41' E 010°38'0 0.0
2015-Jan-24 20:05N 57°41' E 010°38'0 0.1
2015-Jan-24 19:29N 57°41' E 010°38'0 0.1
2015-Jan-24 18:11N 57°41' E 010°38'0 0.1
2015-Jan-24 17:05N 57°41' E 010°38'0 0.0
2015-Jan-24 10:23N 57°41' E 010°38'0 0.0
2015-Jan-24 09:29N 57°41' E 010°38'0 0.0
2015-Jan-24 08:26N 57°41' E 010°38'0 0.1
2015-Jan-24 07:20N 57°41' E 010°38'0 0.1
2015-Jan-24 06:32N 57°41' E 010°38'0 0.0
2015-Jan-24 05:29N 57°41' E 010°38'0 0.0
2015-Jan-24 04:23N 57°41' E 010°38'0 0.0
2015-Jan-24 03:29N 57°41' E 010°38'0 0.0
2015-Jan-24 02:32N 57°41' E 010°38'0 0.0
2015-Jan-24 01:20N 57°41' E 010°38'0 0.0
2015-Jan-24 00:20N 57°41' E 010°38'0 0.0
2015-Jan-23 17:20N 57°41' E 010°38'0 0.0
2015-Jan-23 16:32N 57°41' E 010°38'0 0.0
2015-Jan-23 15:32N 57°41' E 010°38'0 0.0
2015-Jan-23 14:32N 57°41' E 010°38'0 0.0
2015-Jan-23 13:29N 57°41' E 010°38'0 0.0
2015-Jan-23 12:23N 57°41' E 010°38'0 0.0
2015-Jan-23 08:17N 57°41' E 010°38'0 0.1
2015-Jan-23 06:26N 57°41' E 010°38'0 0.0
2015-Jan-23 05:32N 57°41' E 010°38'0 0.1
2015-Jan-23 03:32N 57°41' E 010°38'0 0.1
2015-Jan-23 02:32N 57°41' E 010°38'0 0.0
2015-Jan-23 01:32N 57°41' E 010°38'0 0.0
2015-Jan-23 00:29N 57°41' E 010°38'0 0.0
2015-Jan-22 23:32N 57°41' E 010°38'0 0.0
2015-Jan-22 22:32N 57°41' E 010°38'0 0.1
2015-Jan-22 21:32N 57°41' E 010°37'0 0.1
2015-Jan-22 20:32N 57°41' E 010°37'0 0.0
2015-Jan-22 19:23N 57°41' E 010°37'0 0.0
2015-Jan-22 18:29N 57°41' E 010°37'0 0.0
2015-Jan-22 17:29N 57°41' E 010°37'0 0.0
2015-Jan-22 15:32N 57°41' E 010°37'0 0.1
2015-Jan-22 14:17N 57°41' E 010°37'0 0.1
2015-Jan-22 13:32N 57°41' E 010°38'0 0.0
2015-Jan-22 12:23N 57°41' E 010°38'0 0.0
2015-Jan-22 11:32N 57°41' E 010°38'0 0.0
2015-Jan-22 10:26N 57°41' E 010°38'0 0.0
2015-Jan-22 09:29N 57°41' E 010°38'0 0.0
2015-Jan-22 08:32N 57°41' E 010°38'0 0.1
2015-Jan-22 07:29N 57°41' E 010°37'0 0.1
2015-Jan-22 06:32N 57°41' E 010°37'0 0.0
2015-Jan-22 05:23N 57°41' E 010°37'0 0.0
2015-Jan-22 04:29N 57°41' E 010°37'0 0.1
2015-Jan-22 03:20N 57°41' E 010°37'0 0.1
2015-Jan-22 02:29N 57°41' E 010°37'0 0.0
2015-Jan-22 01:32N 57°41' E 010°37'0 0.0
2015-Jan-22 00:29N 57°41' E 010°38'0 0.0
2015-Jan-21 23:29N 57°41' E 010°38'0 0.0
2015-Jan-21 22:50N 57°41' E 010°38'0 0.0
2015-Jan-21 22:44N 57°41' E 010°38'0 0.1
2015-Jan-21 22:29N 57°41' E 010°38'0 0.0
2015-Jan-21 21:26N 57°41' E 010°38'0 0.1
2015-Jan-21 20:29N 57°41' E 010°37'0 0.0
2015-Jan-21 19:11N 57°41' E 010°37'0 0.0
2015-Jan-21 16:17N 57°41' E 010°37'0 0.0
2015-Jan-21 15:29N 57°41' E 010°37'0 0.0
2015-Jan-21 14:20N 57°41' E 010°37'0 0.0
2015-Jan-21 13:11N 57°41' E 010°37'0 0.0
2015-Jan-21 12:32N 57°41' E 010°37'0 0.0
2015-Jan-21 11:29N 57°41' E 010°37'0 0.0
2015-Jan-21 10:23N 57°41' E 010°37'0 0.0
2015-Jan-21 09:20N 57°41' E 010°37'0 0.0
2015-Jan-21 08:23N 57°41' E 010°37'0 0.0
2015-Jan-21 07:29N 57°41' E 010°37'0 0.0
2015-Jan-21 06:32N 57°41' E 010°37'0 0.0
2015-Jan-21 05:29N 57°41' E 010°37'0 0.0
2015-Jan-21 04:17N 57°41' E 010°37'0 0.0
2015-Jan-21 03:26N 57°41' E 010°37'0 0.0
2015-Jan-21 02:26N 57°41' E 010°37'0 0.0
2015-Jan-21 01:29N 57°41' E 010°37'0 0.0
2015-Jan-21 00:32N 57°41' E 010°37'0 0.0
2015-Jan-20 23:20N 57°41' E 010°37'0 0.0
2015-Jan-20 22:32N 57°41' E 010°37'0 0.0
2015-Jan-20 21:29N 57°41' E 010°37'0 0.0
2015-Jan-20 20:17N 57°41' E 010°37'0 0.0
2015-Jan-20 19:32N 57°41' E 010°37'0 0.0
2015-Jan-20 18:23N 57°41' E 010°37'0 0.0
2015-Jan-20 17:32N 57°41' E 010°37'  
Track history (hours):
 
Tides and Currents Weather Stations Pressure Air Temp Water Temp Dewpoint Dewpoint Depression Visibility Wind Speed Wind Dir Waves Ship Positions

Trident Challenger

Last reported at 2015-Jan-30 16:32 UTC. Time now 2015-Jan-30 17:09 UTC.
Position N 54°05' E 007°46'.

Length 189 m; draft 7 m.

Type: Cargo ship. MMSI: 538003908.

Date/timePositionNaut miles runAvg speedWind from/ knotsBaromVisibWave heightAir tempDewpointWater temp
2015-Jan-30 16:32N 54°05' E 007°46'0 0.0
2015-Jan-30 15:26N 54°05' E 007°46'0 0.0
2015-Jan-30 14:29N 54°05' E 007°46'0 0.0
2015-Jan-30 13:32N 54°05' E 007°46'0 0.1
2015-Jan-30 12:32N 54°05' E 007°46'0 0.0
2015-Jan-30 11:29N 54°05' E 007°46'0 0.0
2015-Jan-30 10:32N 54°05' E 007°46'0 0.1
2015-Jan-30 09:26N 54°05' E 007°46'0 0.0
2015-Jan-30 08:32N 54°05' E 007°46'0 0.0
2015-Jan-30 07:29N 54°05' E 007°46'0 0.0
2015-Jan-30 06:32N 54°05' E 007°46'0 0.0
2015-Jan-30 05:32N 54°05' E 007°46'0 0.0
2015-Jan-30 04:32N 54°05' E 007°46'0 0.0
2015-Jan-30 03:32N 54°05' E 007°46'0 0.0
2015-Jan-30 02:32N 54°05' E 007°46'0 0.0
2015-Jan-30 01:32N 54°05' E 007°46'0 0.1
2015-Jan-30 00:32N 54°05' E 007°46'0 0.1
2015-Jan-29 23:32N 54°05' E 007°46'0 0.0
2015-Jan-29 22:32N 54°05' E 007°46'0 0.1
2015-Jan-29 21:32N 54°05' E 007°46'0 0.0
2015-Jan-29 20:32N 54°05' E 007°46'0 0.0
2015-Jan-29 19:32N 54°05' E 007°46'0 0.0
2015-Jan-29 18:29N 54°05' E 007°46'0 0.0
2015-Jan-29 17:17N 54°05' E 007°46'0 0.0
2015-Jan-29 16:29N 54°05' E 007°46'0 0.0
2015-Jan-29 15:29N 54°05' E 007°46'1 1.5
2015-Jan-29 14:33N 54°05' E 007°48'5 4.7
2015-Jan-29 13:33N 54°06' E 007°56'1 1.3
2015-Jan-29 12:33N 54°07' E 007°58'1 1.1
2015-Jan-29 11:33N 54°08' E 007°60'1 1.0
2015-Jan-29 10:33N 54°08' E 008°01'4 4.2
2015-Jan-29 09:33N 54°07' E 008°08'2 1.9
2015-Jan-29 08:33N 54°06' E 008°05'9 9.4
2015-Jan-29 07:33N 54°06' E 007°49'1010.2
2015-Jan-29 06:33N 54°14' E 007°39'1111.2
2015-Jan-29 05:33N 54°22' E 007°26'1111.1
2015-Jan-29 04:33N 54°29' E 007°11'6 5.9
2015-Jan-29 03:33N 54°34' E 007°18'5 5.3
2015-Jan-29 02:33N 54°38' E 007°23'5 5.0
2015-Jan-29 01:34N 54°43' E 007°26'1212.4
2015-Jan-29 00:33N 54°49' E 007°07'1110.6
2015-Jan-28 23:33N 54°58' E 006°59'1111.1
2015-Jan-28 22:33N 55°09' E 006°52'1110.8
2015-Jan-28 21:33N 55°19' E 006°45'9 8.7
2015-Jan-28 20:33N 55°28' E 006°45'8 8.3
2015-Jan-28 19:33N 55°35' E 006°50'9 9.0
2015-Jan-28 18:33N 55°44' E 006°56'9 8.6
2015-Jan-28 17:33N 55°52' E 007°02'168 8.7
2015-Jan-27 22:13N 57°46' E 010°46'710.1
2015-Jan-27 21:33N 57°41' E 010°38'0 0.2
2015-Jan-27 19:14N 57°41' E 010°38'0 0.0
2015-Jan-27 18:17N 57°41' E 010°38'0 0.0
2015-Jan-27 17:11N 57°41' E 010°38'0 0.0
2015-Jan-27 16:26N 57°41' E 010°38'0 0.0
2015-Jan-27 15:14N 57°41' E 010°38'0 0.0
2015-Jan-27 14:29N 57°41' E 010°38'0 0.0
2015-Jan-27 13:17N 57°41' E 010°38'0 0.1
2015-Jan-27 11:32N 57°41' E 010°38'0 0.1
2015-Jan-27 10:14N 57°41' E 010°38'0 0.0
2015-Jan-27 09:32N 57°41' E 010°38'0 0.0
2015-Jan-27 08:26N 57°41' E 010°38'0 0.0
2015-Jan-27 07:29N 57°41' E 010°38'0 0.0
2015-Jan-27 06:32N 57°41' E 010°38'0 0.0
2015-Jan-27 05:29N 57°41' E 010°38'0 0.0
2015-Jan-27 04:23N 57°41' E 010°38'0 0.0
2015-Jan-27 03:17N 57°41' E 010°38'0 0.0
2015-Jan-27 02:32N 57°41' E 010°38'0 0.0
2015-Jan-27 01:32N 57°41' E 010°38'0 0.0
2015-Jan-27 00:32N 57°41' E 010°38'0 0.0
2015-Jan-26 23:32N 57°41' E 010°38'0 0.0
2015-Jan-26 22:29N 57°41' E 010°38'0 0.0
2015-Jan-26 21:32N 57°41' E 010°38'0 0.0
2015-Jan-26 20:14N 57°41' E 010°38'0 0.0
2015-Jan-26 17:32N 57°41' E 010°38'0 0.1
2015-Jan-26 16:29N 57°41' E 010°38'0 0.0
2015-Jan-26 15:23N 57°41' E 010°38'0 0.0
2015-Jan-26 14:20N 57°41' E 010°38'0 0.0
2015-Jan-26 13:14N 57°41' E 010°38'0 0.0
2015-Jan-26 12:23N 57°41' E 010°38'0 0.0
2015-Jan-26 11:32N 57°41' E 010°38'0 0.0
2015-Jan-26 10:29N 57°41' E 010°38'0 0.0
2015-Jan-26 09:32N 57°41' E 010°38'0 0.0
2015-Jan-26 08:32N 57°41' E 010°38'0 0.0
2015-Jan-26 07:29N 57°41' E 010°38'0 0.0
2015-Jan-26 06:20N 57°41' E 010°38'0 0.0
2015-Jan-26 05:29N 57°41' E 010°38'0 0.0
2015-Jan-26 04:32N 57°41' E 010°38'0 0.0
2015-Jan-26 03:17N 57°41' E 010°38'0 0.0
2015-Jan-26 02:26N 57°41' E 010°38'0 0.0
2015-Jan-25 23:32N 57°41' E 010°38'0 0.0
2015-Jan-25 22:23N 57°41' E 010°38'0 0.0
2015-Jan-25 21:32N 57°41' E 010°38'0 0.0
2015-Jan-25 20:26N 57°41' E 010°38'0 0.0
2015-Jan-25 19:20N 57°41' E 010°38'0 0.0
2015-Jan-25 18:32N 57°41' E 010°38'0 0.0
2015-Jan-25 16:23N 57°41' E 010°38'0 0.0
2015-Jan-25 15:11N 57°41' E 010°38'0 0.0
2015-Jan-25 14:32N 57°41' E 010°38'0 0.0
2015-Jan-25 12:23N 57°41' E 010°38'0 0.0
2015-Jan-25 10:32N 57°41' E 010°38'0 0.1
2015-Jan-25 09:14N 57°41' E 010°38'0 0.0
2015-Jan-25 08:23N 57°41' E 010°38'0 0.0
2015-Jan-25 07:29N 57°41' E 010°38'0 0.0
2015-Jan-25 06:20N 57°41' E 010°38'0 0.0
2015-Jan-25 05:32N 57°41' E 010°38'0 0.0
2015-Jan-25 01:05N 57°41' E 010°38'0 0.0
2015-Jan-25 00:08N 57°41' E 010°38'0 0.1
2015-Jan-24 23:26N 57°41' E 010°38'0 0.0
2015-Jan-24 22:26N 57°41' E 010°38'0 0.0
2015-Jan-24 21:14N 57°41' E 010°38'0 0.0
2015-Jan-24 20:05N 57°41' E 010°38'0 0.1
2015-Jan-24 19:29N 57°41' E 010°38'0 0.1
2015-Jan-24 18:11N 57°41' E 010°38'0 0.1
2015-Jan-24 17:05N 57°41' E 010°38'0 0.0
2015-Jan-24 10:23N 57°41' E 010°38'0 0.0
2015-Jan-24 09:29N 57°41' E 010°38'0 0.0
2015-Jan-24 08:26N 57°41' E 010°38'0 0.1
2015-Jan-24 07:20N 57°41' E 010°38'0 0.1
2015-Jan-24 06:32N 57°41' E 010°38'0 0.0
2015-Jan-24 05:29N 57°41' E 010°38'0 0.0
2015-Jan-24 04:23N 57°41' E 010°38'0 0.0
2015-Jan-24 03:29N 57°41' E 010°38'0 0.0
2015-Jan-24 02:32N 57°41' E 010°38'0 0.0
2015-Jan-24 01:20N 57°41' E 010°38'0 0.0
2015-Jan-24 00:20N 57°41' E 010°38'0 0.0
2015-Jan-23 17:20N 57°41' E 010°38'0 0.0
2015-Jan-23 16:32N 57°41' E 010°38'0 0.0
2015-Jan-23 15:32N 57°41' E 010°38'0 0.0
2015-Jan-23 14:32N 57°41' E 010°38'0 0.0
2015-Jan-23 13:29N 57°41' E 010°38'0 0.0
2015-Jan-23 12:23N 57°41' E 010°38'0 0.0
2015-Jan-23 08:17N 57°41' E 010°38'0 0.1
2015-Jan-23 06:26N 57°41' E 010°38'0 0.0
2015-Jan-23 05:32N 57°41' E 010°38'0 0.1
2015-Jan-23 03:32N 57°41' E 010°38'0 0.1
2015-Jan-23 02:32N 57°41' E 010°38'0 0.0
2015-Jan-23 01:32N 57°41' E 010°38'0 0.0
2015-Jan-23 00:29N 57°41' E 010°38'0 0.0
2015-Jan-22 23:32N 57°41' E 010°38'0 0.0
2015-Jan-22 22:32N 57°41' E 010°38'0 0.1
2015-Jan-22 21:32N 57°41' E 010°37'0 0.1
2015-Jan-22 20:32N 57°41' E 010°37'0 0.0
2015-Jan-22 19:23N 57°41' E 010°37'0 0.0
2015-Jan-22 18:29N 57°41' E 010°37'0 0.0
2015-Jan-22 17:29N 57°41' E 010°37'0 0.0
2015-Jan-22 15:32N 57°41' E 010°37'0 0.1
2015-Jan-22 14:17N 57°41' E 010°37'0 0.1
2015-Jan-22 13:32N 57°41' E 010°38'0 0.0
2015-Jan-22 12:23N 57°41' E 010°38'0 0.0
2015-Jan-22 11:32N 57°41' E 010°38'0 0.0
2015-Jan-22 10:26N 57°41' E 010°38'0 0.0
2015-Jan-22 09:29N 57°41' E 010°38'0 0.0
2015-Jan-22 08:32N 57°41' E 010°38'0 0.1
2015-Jan-22 07:29N 57°41' E 010°37'0 0.1
2015-Jan-22 06:32N 57°41' E 010°37'0 0.0
2015-Jan-22 05:23N 57°41' E 010°37'0 0.0
2015-Jan-22 04:29N 57°41' E 010°37'0 0.1
2015-Jan-22 03:20N 57°41' E 010°37'0 0.1
2015-Jan-22 02:29N 57°41' E 010°37'0 0.0
2015-Jan-22 01:32N 57°41' E 010°37'0 0.0
2015-Jan-22 00:29N 57°41' E 010°38'0 0.0
2015-Jan-21 23:29N 57°41' E 010°38'0 0.0
2015-Jan-21 22:50N 57°41' E 010°38'0 0.0
2015-Jan-21 22:44N 57°41' E 010°38'0 0.1
2015-Jan-21 22:29N 57°41' E 010°38'0 0.0
2015-Jan-21 21:26N 57°41' E 010°38'0 0.1
2015-Jan-21 20:29N 57°41' E 010°37'0 0.0
2015-Jan-21 19:11N 57°41' E 010°37'0 0.0
2015-Jan-21 16:17N 57°41' E 010°37'0 0.0
2015-Jan-21 15:29N 57°41' E 010°37'0 0.0
2015-Jan-21 14:20N 57°41' E 010°37'0 0.0
2015-Jan-21 13:11N 57°41' E 010°37'0 0.0
2015-Jan-21 12:32N 57°41' E 010°37'0 0.0
2015-Jan-21 11:29N 57°41' E 010°37'0 0.0
2015-Jan-21 10:23N 57°41' E 010°37'0 0.0
2015-Jan-21 09:20N 57°41' E 010°37'0 0.0
2015-Jan-21 08:23N 57°41' E 010°37'0 0.0
2015-Jan-21 07:29N 57°41' E 010°37'0 0.0
2015-Jan-21 06:32N 57°41' E 010°37'0 0.0
2015-Jan-21 05:29N 57°41' E 010°37'0 0.0
2015-Jan-21 04:17N 57°41' E 010°37'0 0.0
2015-Jan-21 03:26N 57°41' E 010°37'0 0.0
2015-Jan-21 02:26N 57°41' E 010°37'0 0.0
2015-Jan-21 01:29N 57°41' E 010°37'0 0.0
2015-Jan-21 00:32N 57°41' E 010°37'0 0.0
2015-Jan-20 23:20N 57°41' E 010°37'0 0.0
2015-Jan-20 22:32N 57°41' E 010°37'0 0.0
2015-Jan-20 21:29N 57°41' E 010°37'0 0.0
2015-Jan-20 20:17N 57°41' E 010°37'0 0.0
2015-Jan-20 19:32N 57°41' E 010°37'0 0.0
2015-Jan-20 18:23N 57°41' E 010°37'0 0.0
2015-Jan-20 17:32N 57°41' E 010°37'  

Dump ship's entire track history